Time;durP1;ratioP1;P1;durP2;ratioP2;P2;SDS_P1;SDS_P2;PMS_P1;PMS_P2;Temp;Humidity;BMP_temperature;BMP_pressure;BME280_temperature;BME280_humidity;BME280_pressure;Samples;Min_cycle;Max_cycle;Signal;HPM_P1;HPM_P2
2022/06/27 00:01:32;;;;;;;29.80;8.25;;;;;;;;;;5053528;28;20094;-63
2022/06/27 00:03:59;;;;;;;49.35;9.35;;;;;;;;;;5049559;28;20061;-64
2022/06/27 00:06:25;;;;;;;21.92;7.20;;;;;;;;;;5049469;28;20033;-63
2022/06/27 00:08:52;;;;;;;18.58;8.05;;;;;;;;;;5048659;28;20048;-63
2022/06/27 00:11:19;;;;;;;41.25;8.98;;;;;;;;;;5048985;28;20125;-63
2022/06/27 00:24:54;;;;;;;27.75;8.13;;;;;;;;;;4972651;28;20057;-63
2022/06/27 00:27:21;;;;;;;31.20;8.07;;;;;;;;;;4974219;28;20557;-64
2022/06/27 00:29:47;;;;;;;24.77;7.53;;;;;;;;;;4972755;28;20062;-64
2022/06/27 00:32:16;;;;;;;56.03;9.40;;;;;;;;;;4973041;28;20085;-63
2022/06/27 00:34:43;;;;;;;47.88;9.40;;;;;;;;;;4972966;28;20408;-63
2022/06/27 00:37:09;;;;;;;21.58;7.63;;;;;;;;;;4973069;28;20039;-64
2022/06/27 00:39:36;;;;;;;29.88;8.07;;;;;;;;;;4974141;28;20078;-64
2022/06/27 00:42:03;;;;;;;67.68;9.93;;;;;;;;;;4974134;28;20108;-64
2022/06/27 00:44:33;;;;;;;32.15;8.80;;;;;;;;;;4974450;28;20101;-64
2022/06/27 00:47:00;;;;;;;50.15;9.23;;;;;;;;;;4972877;28;20043;-63
2022/06/27 00:49:26;;;;;;;28.80;8.05;;;;;;;;;;4974277;28;20571;-63
2022/06/27 00:51:53;;;;;;;42.33;8.82;;;;;;;;;;4972371;28;20050;-62
2022/06/27 00:54:21;;;;;;;50.08;8.88;;;;;;;;;;4972621;28;20067;-62
2022/06/27 00:56:49;;;;;;;28.42;7.95;;;;;;;;;;4974155;28;20518;-62
2022/06/27 00:59:15;;;;;;;20.13;7.57;;;;;;;;;;4972803;28;20122;-62
2022/06/27 01:01:42;;;;;;;43.88;8.55;;;;;;;;;;4972224;28;20051;-63
2022/06/27 01:04:08;;;;;;;54.60;8.98;;;;;;;;;;4972545;28;20043;-62
2022/06/27 01:06:35;;;;;;;26.23;7.85;;;;;;;;;;4971889;28;20500;-62
2022/06/27 01:09:02;;;;;;;31.50;8.70;;;;;;;;;;4972743;28;20046;-61
2022/06/27 01:11:29;;;;;;;45.35;8.80;;;;;;;;;;4973284;28;20057;-62
2022/06/27 01:13:56;;;;;;;29.65;7.97;;;;;;;;;;4973538;28;20069;-62
2022/06/27 01:16:23;;;;;;;47.10;10.07;;;;;;;;;;4973980;28;20038;-62
2022/06/27 01:18:50;;;;;;;30.70;8.13;;;;;;;;;;4988234;28;20164;-61
2022/06/27 01:21:21;;;;;;;22.90;7.53;;;;;;;;;;4972162;28;20031;-62
2022/06/27 01:23:48;;;;;;;40.47;8.80;;;;;;;;;;4987571;28;20061;-62
2022/06/27 01:26:18;;;;;;;34.58;8.32;;;;;;;;;;4971945;28;20511;-63
2022/06/27 01:28:48;;;;;;;40.03;8.30;;;;;;;;;;4971997;28;20141;-61
2022/06/27 01:31:15;;;;;;;47.13;9.30;;;;;;;;;;4973750;28;20046;-61
2022/06/27 01:33:42;;;;;;;20.65;7.80;;;;;;;;;;4972061;28;20043;-61
2022/06/27 01:38:54;;;;;;;34.13;7.97;;;;;;;;;;4988002;28;20077;-63
2022/06/27 01:41:22;;;;;;;23.58;7.35;;;;;;;;;;4971676;28;20486;-63
2022/06/27 01:43:49;;;;;;;57.50;10.35;;;;;;;;;;4971218;28;20043;-63
2022/06/27 01:46:16;;;;;;;32.72;8.30;;;;;;;;;;4973794;28;20475;-63
2022/06/27 01:48:43;;;;;;;26.20;8.23;;;;;;;;;;4971256;28;20043;-64
2022/06/27 01:51:09;;;;;;;54.47;9.65;;;;;;;;;;4971170;28;20039;-63
2022/06/27 01:53:36;;;;;;;52.50;10.07;;;;;;;;;;4972862;28;20066;-63
2022/06/27 01:56:04;;;;;;;31.40;8.43;;;;;;;;;;4988042;28;20046;-63
2022/06/27 01:58:36;;;;;;;48.67;10.20;;;;;;;;;;4971518;28;20110;-63
2022/06/27 02:01:04;;;;;;;56.42;9.48;;;;;;;;;;4971571;28;20054;-63
2022/06/27 02:03:31;;;;;;;60.67;9.63;;;;;;;;;;4971107;28;20101;-63
2022/06/27 02:05:58;;;;;;;33.28;8.40;;;;;;;;;;4972562;28;20077;-63
2022/06/27 02:08:25;;;;;;;35.88;8.02;;;;;;;;;;4987456;28;20046;-62
2022/06/27 02:10:51;;;;;;;67.75;10.02;;;;;;;;;;4970666;28;20057;-61
2022/06/27 02:13:18;;;;;;;37.65;7.35;;;;;;;;;;4971636;28;20051;-62
2022/06/27 02:16:08;;;;;;;17.02;7.30;;;;;;;;;;4971021;28;20047;-62
2022/06/27 02:18:36;;;;;;;59.17;10.18;;;;;;;;;;4970191;28;20049;-62
2022/06/27 02:21:02;;;;;;;31.98;8.77;;;;;;;;;;4971399;28;20476;-61
2022/06/27 02:23:29;;;;;;;26.90;7.57;;;;;;;;;;4972308;28;20049;-61
2022/06/27 02:25:56;;;;;;;37.08;8.40;;;;;;;;;;4970756;28;20058;-61
2022/06/27 02:28:25;;;;;;;37.08;8.32;;;;;;;;;;4987809;28;20066;-62
2022/06/27 02:30:52;;;;;;;27.95;8.32;;;;;;;;;;4972449;28;20046;-62
2022/06/27 02:33:19;;;;;;;42.65;9.45;;;;;;;;;;4986013;28;20043;-62
2022/06/27 02:35:46;;;;;;;32.55;8.68;;;;;;;;;;4970244;28;20066;-62
2022/06/27 02:38:14;;;;;;;54.85;10.57;;;;;;;;;;4972219;28;20043;-62
2022/06/27 02:40:42;;;;;;;56.25;10.38;;;;;;;;;;4987038;28;20097;-62
2022/06/27 02:43:12;;;;;;;32.10;8.40;;;;;;;;;;4971344;28;20142;-62
2022/06/27 02:45:43;;;;;;;39.28;9.15;;;;;;;;;;4971848;28;20695;-63
2022/06/27 02:48:10;;;;;;;39.13;8.57;;;;;;;;;;4971525;28;20039;-63
2022/06/27 02:50:38;;;;;;;49.05;9.35;;;;;;;;;;4970943;28;20042;-63
2022/06/27 02:53:09;;;;;;;52.15;10.23;;;;;;;;;;4970898;28;20062;-63
2022/06/27 02:55:41;;;;;;;51.63;9.93;;;;;;;;;;4971080;28;20074;-65
2022/06/27 02:58:26;;;;;;;121.00;15.50;;;;;;;;;;4971593;28;20070;-65
2022/06/27 03:00:54;;;;;;;72.90;10.48;;;;;;;;;;4986849;28;20042;-64
2022/06/27 03:03:23;;;;;;;47.92;9.15;;;;;;;;;;4985564;28;20053;-64
2022/06/27 03:05:53;;;;;;;45.03;9.30;;;;;;;;;;4970208;28;20090;-64
2022/06/27 03:08:20;;;;;;;39.20;8.52;;;;;;;;;;4970242;28;20140;-62
2022/06/27 03:10:47;;;;;;;34.65;7.93;;;;;;;;;;4969006;28;20035;-63
2022/06/27 03:13:15;;;;;;;72.63;10.30;;;;;;;;;;4971078;28;20042;-62
2022/06/27 03:15:42;;;;;;;43.38;8.30;;;;;;;;;;4990367;28;20492;-63
2022/06/27 03:18:12;;;;;;;49.67;8.57;;;;;;;;;;4973335;28;20122;-66
2022/06/27 03:21:04;;;;;;;46.60;9.32;;;;;;;;;;4975040;28;20051;-67
2022/06/27 03:23:35;;;;;;;37.65;8.32;;;;;;;;;;4974166;28;20054;-67
2022/06/27 03:26:02;;;;;;;40.83;8.15;;;;;;;;;;4974026;28;20050;-66
2022/06/27 03:28:33;;;;;;;20.10;6.57;;;;;;;;;;4991228;28;20517;-67
2022/06/27 03:31:01;;;;;;;40.78;8.18;;;;;;;;;;4990620;28;20043;-65
2022/06/27 03:33:32;;;;;;;31.55;7.90;;;;;;;;;;4990162;28;20085;-63
2022/06/27 03:36:24;;;;;;;26.13;7.15;;;;;;;;;;4974126;28;20057;-63
2022/06/27 03:38:50;;;;;;;34.85;8.15;;;;;;;;;;4974244;28;20046;-64
2022/06/27 03:41:20;;;;;;;41.75;7.82;;;;;;;;;;4973942;28;20056;-64
2022/06/27 03:43:47;;;;;;;54.78;8.95;;;;;;;;;;4973978;28;20422;-63
2022/06/27 03:46:14;;;;;;;51.03;8.90;;;;;;;;;;4973854;28;20070;-64
2022/06/27 03:51:50;;;;;;;45.30;8.68;;;;;;;;;;4989682;28;20392;-64
2022/06/27 03:54:16;;;;;;;66.47;9.23;;;;;;;;;;4990089;28;20093;-63
2022/06/27 03:56:43;;;;;;;49.17;8.43;;;;;;;;;;4973231;28;20504;-63
2022/06/27 03:59:10;;;;;;;54.15;10.27;;;;;;;;;;4973402;28;20047;-63
2022/06/27 04:01:38;;;;;;;30.52;7.40;;;;;;;;;;4972964;28;20049;-62
2022/06/27 04:04:05;;;;;;;84.78;9.88;;;;;;;;;;4973518;28;20098;-63
2022/06/27 04:06:33;;;;;;;55.35;8.80;;;;;;;;;;4973381;28;20051;-62
2022/06/27 04:09:00;;;;;;;31.50;7.25;;;;;;;;;;4973668;28;20035;-60
2022/06/27 04:11:27;;;;;;;63.60;8.95;;;;;;;;;;4972928;28;20573;-61
2022/06/27 04:13:56;;;;;;;115.07;12.13;;;;;;;;;;4973336;28;20050;-60
2022/06/27 04:16:41;;;;;;;63.58;9.20;;;;;;;;;;4974580;28;20058;-62
2022/06/27 04:19:46;;;;;;;70.38;9.25;;;;;;;;;;4971779;28;20051;-61
2022/06/27 04:22:28;;;;;;;139.98;12.57;;;;;;;;;;4973803;28;20504;-62
2022/06/27 04:24:55;;;;;;;57.03;8.10;;;;;;;;;;4974017;28;20041;-63
2022/06/27 04:27:51;;;;;;;34.75;8.15;;;;;;;;;;4973515;28;20046;-64
2022/06/27 04:30:18;;;;;;;61.90;8.52;;;;;;;;;;4973833;28;20053;-64
2022/06/27 04:32:48;;;;;;;40.05;8.27;;;;;;;;;;4972496;28;20136;-63
2022/06/27 04:35:15;;;;;;;35.42;7.63;;;;;;;;;;4974243;28;20387;-63
2022/06/27 04:37:43;;;;;;;44.17;7.20;;;;;;;;;;4974431;28;20047;-64
2022/06/27 04:40:31;;;;;;;24.95;6.55;;;;;;;;;;4971171;28;20146;-63
2022/06/27 04:43:00;;;;;;;53.10;8.15;;;;;;;;;;4972839;28;20512;-61
2022/06/27 04:45:28;;;;;;;31.60;7.07;;;;;;;;;;4972673;28;20130;-62
2022/06/27 04:48:07;;;;;;;58.58;8.15;;;;;;;;;;4972062;28;20042;-64
2022/06/27 04:50:36;;;;;;;48.92;8.35;;;;;;;;;;4972711;28;20499;-62
2022/06/27 04:53:03;;;;;;;403.25;28.05;;;;;;;;;;4972283;28;20050;-62
2022/06/27 04:55:30;;;;;;;60.05;8.25;;;;;;;;;;4973025;28;20061;-63
2022/06/27 04:57:57;;;;;;;41.75;7.63;;;;;;;;;;4988605;28;20039;-62
2022/06/27 05:00:23;;;;;;;28.48;5.75;;;;;;;;;;4956759;28;20447;-62
2022/06/27 05:03:13;;;;;;;30.45;6.05;;;;;;;;;;4973778;28;20043;-62
2022/06/27 05:05:44;;;;;;;139.52;14.75;;;;;;;;;;4971845;28;20133;-63
2022/06/27 05:08:10;;;;;;;91.82;9.82;;;;;;;;;;4972696;28;20736;-62
2022/06/27 05:10:42;;;;;;;125.05;11.80;;;;;;;;;;4972463;28;20423;-63
2022/06/27 05:13:08;;;;;;;49.45;7.90;;;;;;;;;;4972457;28;20047;-62
2022/06/27 05:15:37;;;;;;;32.05;5.63;;;;;;;;;;4973374;28;20039;-61
2022/06/27 05:18:04;;;;;;;63.30;7.88;;;;;;;;;;4971681;28;20045;-61
2022/06/27 05:20:31;;;;;;;59.08;7.63;;;;;;;;;;4972256;28;20047;-61
2022/06/27 05:23:00;;;;;;;49.72;6.68;;;;;;;;;;4988433;28;20098;-61
2022/06/27 05:25:27;;;;;;;61.53;7.78;;;;;;;;;;4972715;28;20116;-61
2022/06/27 05:27:56;;;;;;;49.15;6.75;;;;;;;;;;4972954;28;20043;-61
2022/06/27 05:30:22;;;;;;;15.57;4.57;;;;;;;;;;4972348;28;20073;-61
2022/06/27 05:32:49;;;;;;;32.58;5.43;;;;;;;;;;4971783;28;20097;-62
2022/06/27 05:35:17;;;;;;;30.35;5.90;;;;;;;;;;4971897;28;20101;-60
2022/06/27 05:37:45;;;;;;;76.50;8.10;;;;;;;;;;4955095;28;20393;-60
2022/06/27 05:40:12;;;;;;;58.92;6.80;;;;;;;;;;4972353;28;20078;-61
2022/06/27 05:42:39;;;;;;;44.20;5.97;;;;;;;;;;4971546;28;20070;-60
2022/06/27 05:45:07;;;;;;;37.17;6.07;;;;;;;;;;4971476;28;20575;-60
2022/06/27 05:47:44;;;;;;;54.13;6.65;;;;;;;;;;4971357;28;20054;-60
2022/06/27 05:50:16;;;;;;;70.82;7.28;;;;;;;;;;4971408;28;20042;-60
2022/06/27 05:52:43;;;;;;;213.40;18.58;;;;;;;;;;4973274;28;20752;-60
2022/06/27 05:55:10;;;;;;;92.43;8.43;;;;;;;;;;4971985;28;20051;-60
2022/06/27 05:57:38;;;;;;;36.40;5.38;;;;;;;;;;4971255;28;20050;-59
2022/06/27 06:00:06;;;;;;;81.28;7.78;;;;;;;;;;4971322;28;20066;-60
2022/06/27 06:02:38;;;;;;;51.33;6.18;;;;;;;;;;4972224;28;20051;-60
2022/06/27 06:05:11;;;;;;;46.60;5.55;;;;;;;;;;4971111;28;20043;-60
2022/06/27 06:07:39;;;;;;;;;;;;;;;;;;4972480;28;20062;-60
2022/06/27 06:10:06;;;;;;;74.35;7.05;;;;;;;;;;4971086;28;19922;-59
2022/06/27 06:12:34;;;;;;;66.28;6.80;;;;;;;;;;4970395;28;20145;-59
2022/06/27 06:15:03;;;;;;;58.13;6.32;;;;;;;;;;4971123;28;20484;-60
2022/06/27 06:17:33;;;;;;;46.00;5.75;;;;;;;;;;4970521;28;20066;-60
2022/06/27 06:20:00;;;;;;;42.28;5.25;;;;;;;;;;4971089;28;20061;-59
2022/06/27 06:22:27;;;;;;;35.13;5.50;;;;;;;;;;4972249;28;20097;-60
2022/06/27 06:24:54;;;;;;;56.50;6.00;;;;;;;;;;4970458;28;20057;-60
2022/06/27 06:27:21;;;;;;;53.15;6.50;;;;;;;;;;4970769;28;20057;-60
2022/06/27 06:29:48;;;;;;;44.90;6.00;;;;;;;;;;4970776;28;20045;-60
2022/06/27 06:32:15;;;;;;;111.00;9.43;;;;;;;;;;4970777;28;20401;-60
2022/06/27 06:34:43;;;;;;;108.30;9.73;;;;;;;;;;4986842;28;20055;-60
2022/06/27 06:37:10;;;;;;;39.08;5.07;;;;;;;;;;4986635;28;20133;-60
2022/06/27 06:39:41;;;;;;;30.52;5.13;;;;;;;;;;4970723;28;20062;-60
2022/06/27 06:42:07;;;;;;;35.40;4.85;;;;;;;;;;4986949;28;20174;-60
2022/06/27 06:44:45;;;;;;;78.35;7.32;;;;;;;;;;4970564;28;20051;-61
2022/06/27 06:47:22;;;;;;;43.85;5.78;;;;;;;;;;4986450;28;20042;-60
2022/06/27 06:49:51;;;;;;;167.00;12.93;;;;;;;;;;4970509;28;20051;-61
2022/06/27 06:52:19;;;;;;;37.83;5.07;;;;;;;;;;4972534;28;20046;-60
2022/06/27 06:54:46;;;;;;;109.75;8.20;;;;;;;;;;4971332;28;20047;-60
2022/06/27 06:57:17;;;;;;;66.93;6.38;;;;;;;;;;4969256;28;20065;-61
2022/06/27 06:59:43;;;;;;;74.78;7.88;;;;;;;;;;4970590;28;20126;-61
2022/06/27 07:02:10;;;;;;;61.35;6.38;;;;;;;;;;4969611;28;20043;-61
2022/06/27 07:04:38;;;;;;;91.78;8.10;;;;;;;;;;4969888;28;20097;-61
2022/06/27 07:07:05;;;;;;;36.67;4.47;;;;;;;;;;4969842;28;20125;-61
2022/06/27 07:09:32;;;;;;;56.95;6.38;;;;;;;;;;4969549;28;20126;-61
2022/06/27 07:12:00;;;;;;;54.75;6.00;;;;;;;;;;4969176;28;20042;-61
2022/06/27 07:14:27;;;;;;;42.17;5.22;;;;;;;;;;4969899;28;20046;-61
2022/06/27 07:16:54;;;;;;;52.45;5.50;;;;;;;;;;4971858;28;20133;-62
2022/06/27 07:19:20;;;;;;;32.85;4.15;;;;;;;;;;4971778;28;20051;-61
2022/06/27 07:21:47;;;;;;;17.38;3.58;;;;;;;;;;4971518;28;20525;-61
2022/06/27 07:24:13;;;;;;;40.22;5.00;;;;;;;;;;4971079;28;20142;-61
2022/06/27 07:26:40;;;;;;;27.90;3.72;;;;;;;;;;4971241;28;20410;-61
2022/06/27 07:29:07;;;;;;;47.40;4.90;;;;;;;;;;4972205;28;20448;-61
2022/06/27 07:31:33;;;;;;;48.33;5.20;;;;;;;;;;4972236;28;20502;-61
2022/06/27 07:34:02;;;;;;;36.75;4.70;;;;;;;;;;4970818;28;20515;-61
2022/06/27 07:36:28;;;;;;;144.38;13.38;;;;;;;;;;4986425;28;20070;-61
2022/06/27 07:38:55;;;;;;;20.73;4.22;;;;;;;;;;4971663;28;20047;-60
2022/06/27 07:41:23;;;;;;;42.38;5.30;;;;;;;;;;4971512;28;20049;-60
2022/06/27 07:43:50;;;;;;;61.15;6.30;;;;;;;;;;4971500;28;20039;-61
2022/06/27 07:46:20;;;;;;;67.25;6.68;;;;;;;;;;4970584;28;20555;-61
2022/06/27 07:48:47;;;;;;;42.28;5.60;;;;;;;;;;4971144;28;20452;-61
2022/06/27 07:51:19;;;;;;;20.92;3.75;;;;;;;;;;4971264;28;20145;-62
2022/06/27 07:53:48;;;;;;;49.13;5.38;;;;;;;;;;4971443;28;20039;-61
2022/06/27 07:56:15;;;;;;;58.78;6.18;;;;;;;;;;4971249;28;20042;-61
2022/06/27 07:58:54;;;;;;;49.00;5.65;;;;;;;;;;4971187;28;20074;-62
2022/06/27 08:01:21;;;;;;;35.67;4.32;;;;;;;;;;4974933;28;20085;-62
2022/06/27 08:03:48;;;;;;;56.35;6.30;;;;;;;;;;4974241;28;20121;-61
2022/06/27 08:06:17;;;;;;;42.92;5.03;;;;;;;;;;4974049;28;20487;-62
2022/06/27 08:08:45;;;;;;;30.33;4.78;;;;;;;;;;4974758;28;20061;-61
2022/06/27 08:11:13;;;;;;;45.40;6.18;;;;;;;;;;4974469;28;20117;-62
2022/06/27 08:13:40;;;;;;;36.75;5.03;;;;;;;;;;4974999;28;20066;-62
2022/06/27 08:16:08;;;;;;;47.17;5.35;;;;;;;;;;4974651;28;20051;-61
2022/06/27 08:18:36;;;;;;;62.75;7.60;;;;;;;;;;4974201;28;20049;-62
2022/06/27 08:21:03;;;;;;;35.00;5.45;;;;;;;;;;4974676;28;20051;-62
2022/06/27 08:23:31;;;;;;;73.78;6.95;;;;;;;;;;4974090;28;20459;-62
2022/06/27 08:25:58;;;;;;;56.72;6.45;;;;;;;;;;4974382;28;20121;-61
2022/06/27 08:28:26;;;;;;;87.85;8.32;;;;;;;;;;4974847;28;20047;-62
2022/06/27 08:30:54;;;;;;;33.10;4.50;;;;;;;;;;4974596;28;20053;-62
2022/06/27 08:33:21;;;;;;;41.92;4.82;;;;;;;;;;4973375;28;20089;-62
2022/06/27 08:35:48;;;;;;;63.90;6.18;;;;;;;;;;4973741;28;20074;-61
2022/06/27 08:38:18;;;;;;;39.80;5.13;;;;;;;;;;4974365;28;20047;-61
2022/06/27 08:40:46;;;;;;;33.92;4.63;;;;;;;;;;4974179;28;20090;-62
2022/06/27 08:43:13;;;;;;;23.55;4.15;;;;;;;;;;4974287;28;20044;-61
2022/06/27 08:45:41;;;;;;;44.47;5.30;;;;;;;;;;4973893;28;20043;-61
2022/06/27 08:48:07;;;;;;;39.95;4.97;;;;;;;;;;4973878;28;20098;-62
2022/06/27 08:50:35;;;;;;;60.42;6.28;;;;;;;;;;4973421;28;20365;-61
2022/06/27 08:53:03;;;;;;;38.08;4.93;;;;;;;;;;4974381;28;20522;-62
2022/06/27 08:55:31;;;;;;;40.60;5.10;;;;;;;;;;4974337;28;20054;-61
2022/06/27 08:58:04;;;;;;;38.38;5.20;;;;;;;;;;4973739;28;20117;-61
2022/06/27 09:00:37;;;;;;;68.15;6.55;;;;;;;;;;4973674;28;20058;-61
2022/06/27 09:03:06;;;;;;;44.28;5.75;;;;;;;;;;4973268;28;20486;-61
2022/06/27 09:05:33;;;;;;;57.60;5.88;;;;;;;;;;4973274;28;20066;-62
2022/06/27 09:08:04;;;;;;;47.05;5.05;;;;;;;;;;4973954;28;20046;-61
2022/06/27 09:10:32;;;;;;;59.72;5.82;;;;;;;;;;4973937;28;20542;-61
2022/06/27 09:13:03;;;;;;;43.15;6.00;;;;;;;;;;4973709;28;20050;-61
2022/06/27 09:15:39;;;;;;;67.93;6.70;;;;;;;;;;4973288;28;20132;-61
2022/06/27 09:18:07;;;;;;;34.35;4.80;;;;;;;;;;4973326;28;20038;-61
2022/06/27 09:20:46;;;;;;;92.38;8.48;;;;;;;;;;4973149;28;20534;-61
2022/06/27 09:23:43;;;;;;;42.40;5.43;;;;;;;;;;4973266;28;20039;-61
2022/06/27 09:26:13;;;;;;;66.93;7.30;;;;;;;;;;4972582;28;20662;-61
2022/06/27 09:28:41;;;;;;;61.85;6.85;;;;;;;;;;4971965;28;20113;-61
2022/06/27 09:31:12;;;;;;;49.38;6.18;;;;;;;;;;4973008;28;20117;-61
2022/06/27 09:33:41;;;;;;;14.52;4.45;;;;;;;;;;4972570;28;20043;-61
2022/06/27 09:36:08;;;;;;;31.08;5.47;;;;;;;;;;4972949;28;20093;-61
2022/06/27 09:38:38;;;;;;;28.55;4.95;;;;;;;;;;4972910;28;20113;-64
2022/06/27 09:41:05;;;;;;;56.30;6.40;;;;;;;;;;4973086;28;20027;-62
2022/06/27 09:43:33;;;;;;;55.60;6.55;;;;;;;;;;4973404;28;20503;-61
2022/06/27 09:46:00;;;;;;;43.80;5.85;;;;;;;;;;4972938;28;20035;-61
2022/06/27 09:48:28;;;;;;;63.80;6.20;;;;;;;;;;4971871;28;20038;-64
2022/06/27 09:50:55;;;;;;;80.53;8.07;;;;;;;;;;4972797;28;20046;-64
2022/06/27 09:53:26;;;;;;;40.53;5.70;;;;;;;;;;4972640;28;20066;-64
2022/06/27 09:55:54;;;;;;;58.25;6.28;;;;;;;;;;4971900;28;20492;-64
2022/06/27 09:58:20;;;;;;;44.53;5.47;;;;;;;;;;4972729;28;20067;-65
2022/06/27 10:00:48;;;;;;;27.50;4.45;;;;;;;;;;4972525;28;20460;-64
2022/06/27 10:03:16;;;;;;;31.17;5.03;;;;;;;;;;4971923;28;20093;-64
2022/06/27 10:05:44;;;;;;;45.25;6.43;;;;;;;;;;4972542;28;20054;-64
2022/06/27 10:08:12;;;;;;;56.58;5.38;;;;;;;;;;4972575;28;20527;-64
2022/06/27 10:10:57;;;;;;;37.25;4.22;;;;;;;;;;4970570;28;20047;-64
2022/06/27 10:13:24;;;;;;;36.38;4.00;;;;;;;;;;4971355;28;20047;-65
2022/06/27 10:15:50;;;;;;;49.45;5.78;;;;;;;;;;4971945;28;20488;-66
2022/06/27 10:18:17;;;;;;;50.53;6.15;;;;;;;;;;4971328;28;20122;-66
2022/06/27 10:20:47;;;;;;;31.80;4.18;;;;;;;;;;4972086;28;20043;-63
2022/06/27 10:23:13;;;;;;;55.28;5.18;;;;;;;;;;4971743;28;20051;-64
2022/06/27 10:25:41;;;;;;;69.70;7.25;;;;;;;;;;4971716;28;20042;-64
2022/06/27 10:28:14;;;;;;;77.07;8.50;;;;;;;;;;4971719;28;20466;-63
2022/06/27 10:30:43;;;;;;;37.88;6.60;;;;;;;;;;4970978;28;20114;-63
2022/06/27 10:33:19;;;;;;;39.47;5.00;;;;;;;;;;4971539;28;20066;-64
2022/06/27 10:35:58;;;;;;;36.15;4.00;;;;;;;;;;4971973;28;20038;-63
2022/06/27 10:38:31;;;;;;;35.58;4.10;;;;;;;;;;4972044;28;20384;-65
2022/06/27 10:40:58;;;;;;;68.95;6.00;;;;;;;;;;4971897;28;20074;-63
2022/06/27 10:43:39;;;;;;;56.20;5.13;;;;;;;;;;4972502;28;20428;-64
2022/06/27 10:46:11;;;;;;;36.58;5.10;;;;;;;;;;4971426;28;20035;-64
2022/06/27 10:48:38;;;;;;;;;;;;;;;;;;4971970;28;20035;-63
2022/06/27 10:51:24;;;;;;;21.85;3.63;;;;;;;;;;4972255;28;19926;-63
2022/06/27 10:53:52;;;;;;;33.60;4.30;;;;;;;;;;4971664;28;20035;-63
2022/06/27 10:56:27;;;;;;;25.50;4.00;;;;;;;;;;4970113;28;20457;-65
2022/06/27 10:58:54;;;;;;;50.97;4.95;;;;;;;;;;4972041;28;20039;-65
2022/06/27 11:01:24;;;;;;;39.45;4.40;;;;;;;;;;4972254;28;20472;-66
2022/06/27 11:03:51;;;;;;;28.20;4.18;;;;;;;;;;4971187;28;20474;-64
2022/06/27 11:06:18;;;;;;;57.63;5.53;;;;;;;;;;4971333;28;20133;-65
2022/06/27 11:08:48;;;;;;;53.13;5.25;;;;;;;;;;4971299;28;20031;-65
2022/06/27 11:11:22;;;;;;;33.92;3.80;;;;;;;;;;4971590;28;20034;-65
2022/06/27 11:13:51;;;;;;;134.90;9.68;;;;;;;;;;4970328;28;20097;-66
2022/06/27 11:16:20;;;;;;;51.50;4.15;;;;;;;;;;4970654;28;20046;-66
2022/06/27 11:18:54;;;;;;;37.67;4.35;;;;;;;;;;4971551;28;20046;-65
2022/06/27 11:21:22;;;;;;;57.00;5.38;;;;;;;;;;4971036;28;20042;-65
2022/06/27 11:23:49;;;;;;;24.70;3.83;;;;;;;;;;4971710;28;20102;-65
2022/06/27 11:26:16;;;;;;;491.35;44.58;;;;;;;;;;4971279;28;20110;-65
2022/06/27 11:34:29;;;;;;;110.10;10.68;;;;;;;;;;4975633;28;20068;-64
2022/06/27 11:36:56;;;;;;;37.65;4.18;;;;;;;;;;4975223;28;20051;-66
2022/06/27 11:39:24;;;;;;;40.88;4.50;;;;;;;;;;4974329;28;20506;-65
2022/06/27 11:41:58;;;;;;;46.63;4.93;;;;;;;;;;4975023;28;20411;-64
2022/06/27 11:44:26;;;;;;;63.25;6.25;;;;;;;;;;4973493;28;20050;-65
2022/06/27 11:47:01;;;;;;;45.00;5.03;;;;;;;;;;4974932;28;20133;-65
2022/06/27 11:49:31;;;;;;;81.57;6.93;;;;;;;;;;4975250;28;20472;-65
2022/06/27 11:51:59;;;;;;;50.50;5.55;;;;;;;;;;4975067;28;20129;-65
2022/06/27 11:54:35;;;;;;;27.02;3.80;;;;;;;;;;4973156;28;20102;-65
2022/06/27 11:57:01;;;;;;;92.90;8.25;;;;;;;;;;4974705;28;20043;-65
2022/06/27 11:59:29;;;;;;;55.90;5.30;;;;;;;;;;4974759;28;20043;-65
2022/06/27 12:02:01;;;;;;;70.03;6.63;;;;;;;;;;4974967;28;20058;-65
2022/06/27 12:04:29;;;;;;;55.30;5.75;;;;;;;;;;4975317;28;20434;-66
2022/06/27 12:06:55;;;;;;;29.80;7.53;;;;;;;;;;4974562;28;20066;-65
2022/06/27 12:09:23;;;;;;;30.98;4.38;;;;;;;;;;4974753;28;20447;-65
2022/06/27 12:11:51;;;;;;;129.35;10.98;;;;;;;;;;4974623;28;20062;-66
2022/06/27 12:14:18;;;;;;;30.58;4.35;;;;;;;;;;4974698;28;20035;-64
2022/06/27 12:16:49;;;;;;;57.72;5.00;;;;;;;;;;4975381;28;20051;-65
2022/06/27 12:19:24;;;;;;;41.67;5.03;;;;;;;;;;4973576;28;20105;-63
2022/06/27 12:21:51;;;;;;;30.58;3.92;;;;;;;;;;4974577;28;20042;-63
2022/06/27 12:24:18;;;;;;;34.72;4.07;;;;;;;;;;4974554;28;20043;-63
2022/06/27 12:26:44;;;;;;;46.17;5.68;;;;;;;;;;4974422;28;20043;-65
2022/06/27 12:29:11;;;;;;;75.05;6.40;;;;;;;;;;4974166;28;20054;-65
2022/06/27 12:31:40;;;;;;;30.77;3.75;;;;;;;;;;4973915;28;20038;-65
2022/06/27 12:34:06;;;;;;;193.13;15.88;;;;;;;;;;4974104;28;20058;-65
2022/06/27 12:36:33;;;;;;;57.60;5.20;;;;;;;;;;4974681;28;20121;-65
2022/06/27 12:39:00;;;;;;;57.20;5.70;;;;;;;;;;4974125;28;20039;-65
2022/06/27 12:41:27;;;;;;;58.70;5.38;;;;;;;;;;4974431;28;20527;-65
2022/06/27 12:43:54;;;;;;;49.35;5.05;;;;;;;;;;4974133;28;20585;-65
2022/06/27 12:46:20;;;;;;;37.33;4.70;;;;;;;;;;4974586;28;20125;-65
2022/06/27 12:48:47;;;;;;;87.35;7.13;;;;;;;;;;4973637;28;20035;-65
2022/06/27 12:51:14;;;;;;;70.40;7.82;;;;;;;;;;4973605;28;20046;-66
2022/06/27 12:53:41;;;;;;;69.38;6.30;;;;;;;;;;4974404;28;20403;-65
2022/06/27 12:56:08;;;;;;;87.07;7.38;;;;;;;;;;4973814;28;20514;-65
2022/06/27 12:58:34;;;;;;;112.88;8.70;;;;;;;;;;4974430;28;20046;-64
2022/06/27 13:01:01;;;;;;;37.47;4.57;;;;;;;;;;4974000;28;20062;-65
2022/06/27 13:03:28;;;;;;;83.18;9.05;;;;;;;;;;4973395;28;20039;-65
2022/06/27 13:05:55;;;;;;;49.20;4.50;;;;;;;;;;4973428;28;20066;-65
2022/06/27 13:08:22;;;;;;;36.75;3.72;;;;;;;;;;4973900;28;20450;-65
2022/06/27 13:10:49;;;;;;;71.85;6.75;;;;;;;;;;4973319;28;20039;-65
2022/06/27 13:13:15;;;;;;;56.75;5.20;;;;;;;;;;4974154;28;20125;-65
2022/06/27 13:15:42;;;;;;;16.98;2.95;;;;;;;;;;4972756;28;20062;-65
2022/06/27 13:18:09;;;;;;;50.22;4.95;;;;;;;;;;4973212;28;20487;-65
2022/06/27 13:20:36;;;;;;;35.50;4.38;;;;;;;;;;4973278;28;20121;-64
2022/06/27 13:23:02;;;;;;;58.30;5.70;;;;;;;;;;4973574;28;20515;-65
2022/06/27 13:25:29;;;;;;;85.38;6.72;;;;;;;;;;4973588;28;20081;-65
2022/06/27 13:27:56;;;;;;;39.50;4.13;;;;;;;;;;4973124;28;20079;-65
2022/06/27 13:30:22;;;;;;;67.93;6.28;;;;;;;;;;4973077;28;20067;-65
2022/06/27 13:32:49;;;;;;;59.65;5.25;;;;;;;;;;4972737;28;20125;-65
2022/06/27 13:35:15;;;;;;;33.20;3.78;;;;;;;;;;4973669;28;20039;-65
2022/06/27 13:37:42;;;;;;;27.73;3.67;;;;;;;;;;4974105;28;20038;-65
2022/06/27 13:40:09;;;;;;;47.63;4.93;;;;;;;;;;4972807;28;20047;-65
2022/06/27 13:42:36;;;;;;;34.40;3.95;;;;;;;;;;4988212;28;20125;-65
2022/06/27 13:45:04;;;;;;;42.88;4.65;;;;;;;;;;4973224;28;20101;-64
2022/06/27 13:47:31;;;;;;;47.53;4.72;;;;;;;;;;4972692;28;20441;-64
2022/06/27 13:49:58;;;;;;;39.55;4.32;;;;;;;;;;4971998;28;20042;-65
2022/06/27 13:52:24;;;;;;;61.28;5.57;;;;;;;;;;4973646;28;20093;-65
2022/06/27 13:54:51;;;;;;;70.88;5.90;;;;;;;;;;4972672;28;20141;-64
2022/06/27 13:57:17;;;;;;;41.20;4.00;;;;;;;;;;4972452;28;20123;-64
2022/06/27 13:59:48;;;;;;;59.42;5.20;;;;;;;;;;4973344;28;20045;-64
2022/06/27 14:02:15;;;;;;;66.35;5.90;;;;;;;;;;4972763;28;20163;-65
2022/06/27 14:04:41;;;;;;;49.88;4.82;;;;;;;;;;4972986;28;20101;-64
2022/06/27 14:09:53;;;;;;;37.08;4.50;;;;;;;;;;4972570;28;20038;-66
2022/06/27 14:12:20;;;;;;;27.20;3.45;;;;;;;;;;4987107;28;20047;-66
2022/06/27 14:14:46;;;;;;;42.70;4.32;;;;;;;;;;4972409;28;20038;-65
2022/06/27 14:17:13;;;;;;;55.67;5.50;;;;;;;;;;4972910;28;20598;-65
2022/06/27 14:19:39;;;;;;;69.60;6.32;;;;;;;;;;4972737;28;20045;-65
2022/06/27 14:22:06;;;;;;;34.90;4.35;;;;;;;;;;4971944;28;20074;-65
2022/06/27 14:24:33;;;;;;;87.43;7.18;;;;;;;;;;4971938;28;20074;-65
2022/06/27 14:26:59;;;;;;;108.20;8.60;;;;;;;;;;4971939;28;20153;-65
2022/06/27 14:29:26;;;;;;;21.42;3.30;;;;;;;;;;4972456;28;20050;-65
2022/06/27 14:31:53;;;;;;;76.97;6.57;;;;;;;;;;4972422;28;20105;-65
2022/06/27 14:34:19;;;;;;;105.30;8.25;;;;;;;;;;4971608;28;20051;-66
2022/06/27 14:36:46;;;;;;;32.53;3.55;;;;;;;;;;4972184;28;20043;-66
2022/06/27 14:39:13;;;;;;;105.80;8.35;;;;;;;;;;4970641;28;20095;-65
2022/06/27 14:41:41;;;;;;;81.97;7.03;;;;;;;;;;4972627;28;20054;-65
2022/06/27 14:44:09;;;;;;;234.25;15.90;;;;;;;;;;4972205;28;20062;-66
2022/06/27 14:46:36;;;;;;;115.78;8.90;;;;;;;;;;4972168;28;20488;-66
2022/06/27 14:49:02;;;;;;;45.08;4.75;;;;;;;;;;4970217;28;20129;-65
2022/06/27 14:51:31;;;;;;;39.25;8.48;;;;;;;;;;4971953;28;20042;-65
2022/06/27 14:53:58;;;;;;;83.75;7.43;;;;;;;;;;4971222;28;20415;-65
2022/06/27 14:56:25;;;;;;;37.85;4.55;;;;;;;;;;4972231;28;20109;-65
2022/06/27 14:58:51;;;;;;;35.90;4.40;;;;;;;;;;4972326;28;20046;-65
2022/06/27 15:01:18;;;;;;;65.15;5.15;;;;;;;;;;4972439;28;20062;-65
2022/06/27 15:03:45;;;;;;;39.13;4.35;;;;;;;;;;4971718;28;20430;-65